Time;durP1;ratioP1;P1;durP2;ratioP2;P2;SDS_P1;SDS_P2;PMS_P1;PMS_P2;Temp;Humidity;BMP_temperature;BMP_pressure;BME280_temperature;BME280_humidity;BME280_pressure;Samples;Min_cycle;Max_cycle;Signal;HPM_P1;HPM_P2
2024/02/26 00:00:28;;;;;;;22.25;11.60;;;;;;;;;;5037445;28;20044;-69
2024/02/26 00:02:55;;;;;;;19.27;10.15;;;;;;;;;;5041724;28;21320;-69
2024/02/26 00:05:21;;;;;;;19.80;11.00;;;;;;;;;;5046495;28;20055;-69
2024/02/26 00:07:48;;;;;;;16.58;10.68;;;;;;;;;;5021248;28;20131;-69
2024/02/26 00:10:14;;;;;;;21.75;10.57;;;;;;;;;;5036901;28;20471;-69
2024/02/26 00:12:41;;;;;;;18.40;10.73;;;;;;;;;;5002428;28;20093;-69
2024/02/26 00:15:10;;;;;;;16.50;10.75;;;;;;;;;;5012630;28;20045;-69
2024/02/26 00:17:36;;;;;;;17.17;10.35;;;;;;;;;;5003946;28;20488;-69
2024/02/26 00:20:04;;;;;;;19.42;10.98;;;;;;;;;;5019700;28;20046;-69
2024/02/26 00:22:31;;;;;;;19.70;10.23;;;;;;;;;;5025953;28;20132;-69
2024/02/26 00:24:57;;;;;;;16.50;10.48;;;;;;;;;;5023168;28;21437;-69
2024/02/26 00:27:23;;;;;;;16.17;9.70;;;;;;;;;;5017473;28;20072;-69
2024/02/26 00:29:49;;;;;;;15.30;8.90;;;;;;;;;;5011804;28;20539;-69
2024/02/26 00:32:15;;;;;;;17.42;9.25;;;;;;;;;;5015918;28;20045;-69
2024/02/26 00:34:42;;;;;;;16.15;9.23;;;;;;;;;;5013469;28;20059;-69
2024/02/26 00:37:08;;;;;;;12.82;8.60;;;;;;;;;;5018048;28;20059;-69
2024/02/26 00:39:34;;;;;;;14.00;8.75;;;;;;;;;;5014665;28;20060;-69
2024/02/26 00:42:00;;;;;;;17.92;8.43;;;;;;;;;;5017627;28;20041;-69
2024/02/26 00:44:26;;;;;;;15.55;8.27;;;;;;;;;;5021679;28;20049;-69
2024/02/26 00:46:52;;;;;;;13.75;8.32;;;;;;;;;;5023725;28;20053;-69
2024/02/26 00:49:19;;;;;;;12.52;8.02;;;;;;;;;;5021831;28;20041;-69
2024/02/26 00:51:45;;;;;;;13.85;8.05;;;;;;;;;;5019708;28;20053;-69
2024/02/26 00:54:11;;;;;;;13.38;7.90;;;;;;;;;;5022139;28;21521;-69
2024/02/26 00:56:37;;;;;;;13.30;7.65;;;;;;;;;;5020573;28;20056;-69
2024/02/26 00:59:03;;;;;;;16.23;7.75;;;;;;;;;;5026545;28;20462;-69
2024/02/26 01:01:30;;;;;;;15.13;8.48;;;;;;;;;;5021496;28;20049;-69
2024/02/26 01:03:56;;;;;;;11.30;7.05;;;;;;;;;;5023489;28;20134;-69
2024/02/26 01:06:22;;;;;;;11.48;7.43;;;;;;;;;;5029037;28;20048;-69
2024/02/26 01:08:48;;;;;;;12.32;7.57;;;;;;;;;;5027482;28;20053;-69
2024/02/26 01:11:15;;;;;;;11.63;7.05;;;;;;;;;;5020213;28;20044;-69
2024/02/26 01:13:41;;;;;;;12.25;7.00;;;;;;;;;;5021382;28;20041;-69
2024/02/26 01:16:07;;;;;;;13.10;7.65;;;;;;;;;;5023353;28;20086;-69
2024/02/26 01:18:33;;;;;;;14.00;6.93;;;;;;;;;;5023138;28;20132;-69
2024/02/26 01:20:59;;;;;;;13.07;6.50;;;;;;;;;;5025477;28;20405;-69
2024/02/26 01:23:25;;;;;;;11.38;7.50;;;;;;;;;;5011352;28;20494;-69
2024/02/26 01:25:52;;;;;;;12.27;6.97;;;;;;;;;;5020404;28;20063;-69
2024/02/26 01:28:18;;;;;;;10.82;7.10;;;;;;;;;;5027772;28;20060;-69
2024/02/26 01:30:44;;;;;;;11.40;7.10;;;;;;;;;;5026860;28;20144;-69
2024/02/26 01:33:10;;;;;;;10.93;6.90;;;;;;;;;;5041865;28;20895;-69
2024/02/26 01:35:36;;;;;;;11.20;7.28;;;;;;;;;;5052140;28;20094;-69
2024/02/26 01:38:02;;;;;;;11.73;6.70;;;;;;;;;;5024591;28;20041;-69
2024/02/26 01:40:29;;;;;;;10.18;6.57;;;;;;;;;;5043858;28;20044;-69
2024/02/26 01:42:56;;;;;;;10.95;6.78;;;;;;;;;;5025313;28;20037;-69
2024/02/26 01:45:24;;;;;;;10.30;7.13;;;;;;;;;;5025113;28;20076;-69
2024/02/26 01:47:51;;;;;;;10.38;6.30;;;;;;;;;;5029140;28;20121;-69
2024/02/26 01:50:18;;;;;;;14.52;7.78;;;;;;;;;;5026172;28;20438;-69
2024/02/26 01:52:46;;;;;;;13.63;6.80;;;;;;;;;;5004261;28;20072;-69
2024/02/26 01:55:14;;;;;;;11.13;7.15;;;;;;;;;;5004139;28;20348;-69
2024/02/26 01:57:40;;;;;;;12.63;7.00;;;;;;;;;;5020575;28;20082;-69
2024/02/26 02:00:07;;;;;;;13.77;7.53;;;;;;;;;;5026513;28;20106;-69
2024/02/26 02:02:34;;;;;;;12.50;6.72;;;;;;;;;;5039872;28;20045;-69
2024/02/26 02:05:00;;;;;;;13.20;6.78;;;;;;;;;;5038626;28;20115;-69
2024/02/26 02:07:26;;;;;;;9.63;6.47;;;;;;;;;;5022557;28;20496;-69
2024/02/26 02:09:53;;;;;;;9.73;6.53;;;;;;;;;;5039834;28;20085;-69
2024/02/26 02:12:20;;;;;;;15.07;7.10;;;;;;;;;;5017988;28;20100;-69
2024/02/26 02:14:46;;;;;;;17.15;6.70;;;;;;;;;;5023359;28;20058;-69
2024/02/26 02:17:12;;;;;;;11.75;5.93;;;;;;;;;;5023369;28;20075;-69
2024/02/26 02:19:38;;;;;;;10.25;6.15;;;;;;;;;;5024345;28;20075;-69
2024/02/26 02:22:05;;;;;;;14.05;6.60;;;;;;;;;;5032907;28;20114;-69
2024/02/26 02:24:31;;;;;;;16.20;6.80;;;;;;;;;;5031127;28;20481;-69
2024/02/26 02:26:57;;;;;;;11.63;6.45;;;;;;;;;;5028832;28;20108;-69
2024/02/26 02:29:23;;;;;;;10.05;5.88;;;;;;;;;;5025370;28;20115;-69
2024/02/26 02:31:49;;;;;;;11.85;6.40;;;;;;;;;;5022902;28;20064;-69
2024/02/26 02:34:16;;;;;;;18.05;6.88;;;;;;;;;;5024663;28;20128;-69
2024/02/26 02:36:50;;;;;;;9.70;7.03;;;;;;;;;;5021203;28;20051;-69
2024/02/26 02:39:16;;;;;;;10.02;6.75;;;;;;;;;;5020286;28;20052;-69
2024/02/26 02:41:42;;;;;;;13.38;7.10;;;;;;;;;;5018663;28;20079;-69
2024/02/26 02:44:08;;;;;;;11.85;6.82;;;;;;;;;;5023689;28;20405;-69
2024/02/26 02:46:35;;;;;;;12.63;7.00;;;;;;;;;;5027136;28;20111;-69
2024/02/26 02:49:01;;;;;;;12.55;7.60;;;;;;;;;;5019257;28;20060;-69
2024/02/26 02:51:27;;;;;;;13.70;7.53;;;;;;;;;;5019921;28;20272;-66
2024/02/26 02:53:53;;;;;;;11.23;6.15;;;;;;;;;;5024302;28;20423;-69
2024/02/26 02:56:20;;;;;;;14.60;6.20;;;;;;;;;;5022302;28;20044;-69
2024/02/26 02:58:46;;;;;;;14.55;6.32;;;;;;;;;;5024723;28;20097;-69
2024/02/26 03:01:14;;;;;;;10.65;6.55;;;;;;;;;;5022262;28;20037;-69
2024/02/26 03:03:40;;;;;;;10.40;5.97;;;;;;;;;;5020983;28;20119;-69
2024/02/26 03:06:06;;;;;;;9.98;6.43;;;;;;;;;;5003007;28;20052;-69
2024/02/26 03:08:32;;;;;;;11.25;5.90;;;;;;;;;;5035869;28;20486;-69
2024/02/26 03:10:59;;;;;;;12.93;6.10;;;;;;;;;;5020116;28;20124;-69
2024/02/26 03:13:26;;;;;;;10.88;6.13;;;;;;;;;;5015663;28;20053;-69
2024/02/26 03:15:52;;;;;;;10.13;5.93;;;;;;;;;;5009494;28;20049;-69
2024/02/26 03:18:18;;;;;;;14.60;6.60;;;;;;;;;;5024656;28;20374;-69
2024/02/26 03:20:44;;;;;;;12.02;6.63;;;;;;;;;;5022456;28;20053;-69
2024/02/26 03:23:12;;;;;;;10.98;6.47;;;;;;;;;;5023288;28;20025;-69
2024/02/26 03:25:39;;;;;;;11.68;6.63;;;;;;;;;;5023999;28;20084;-69
2024/02/26 03:28:05;;;;;;;10.88;6.93;;;;;;;;;;5022013;28;20666;-69
2024/02/26 03:30:31;;;;;;;11.82;6.40;;;;;;;;;;5022914;28;20112;-69
2024/02/26 03:32:57;;;;;;;11.60;6.15;;;;;;;;;;5024479;28;20546;-69
2024/02/26 03:35:23;;;;;;;9.55;5.75;;;;;;;;;;5020718;28;20110;-69
2024/02/26 03:37:51;;;;;;;11.63;6.13;;;;;;;;;;5019470;28;20709;-69
2024/02/26 03:40:19;;;;;;;8.90;5.68;;;;;;;;;;5016641;28;20053;-69
2024/02/26 03:42:45;;;;;;;10.98;6.00;;;;;;;;;;5019576;28;20394;-69
2024/02/26 03:45:12;;;;;;;13.93;6.13;;;;;;;;;;5017621;28;20041;-69
2024/02/26 03:47:39;;;;;;;11.77;5.85;;;;;;;;;;5013133;28;20045;-69
2024/02/26 03:50:06;;;;;;;10.10;5.47;;;;;;;;;;5020466;28;20449;-69
2024/02/26 03:52:33;;;;;;;10.55;5.63;;;;;;;;;;5016108;28;20175;-69
2024/02/26 03:55:00;;;;;;;8.45;5.97;;;;;;;;;;5017956;28;20045;-69
2024/02/26 03:57:26;;;;;;;11.18;5.75;;;;;;;;;;5015120;28;21473;-70
2024/02/26 03:59:52;;;;;;;11.93;5.72;;;;;;;;;;5019133;28;20049;-69
2024/02/26 04:02:20;;;;;;;14.52;6.57;;;;;;;;;;5016814;28;20052;-69
2024/02/26 04:04:47;;;;;;;10.18;6.13;;;;;;;;;;5015312;28;20098;-69
2024/02/26 04:07:13;;;;;;;11.80;6.45;;;;;;;;;;5017000;28;20076;-69
2024/02/26 04:09:39;;;;;;;10.60;6.32;;;;;;;;;;5020691;28;20168;-69
2024/02/26 04:12:06;;;;;;;11.25;6.47;;;;;;;;;;5015967;28;20068;-69
2024/02/26 04:14:32;;;;;;;12.98;6.45;;;;;;;;;;5016200;28;20762;-69
2024/02/26 04:16:58;;;;;;;11.50;6.65;;;;;;;;;;5013340;28;20053;-69
2024/02/26 04:19:24;;;;;;;12.55;6.57;;;;;;;;;;5015219;28;20409;-69
2024/02/26 04:21:50;;;;;;;13.20;6.78;;;;;;;;;;5019528;28;20140;-69
2024/02/26 04:24:17;;;;;;;11.55;6.13;;;;;;;;;;5017754;28;20106;-69
2024/02/26 04:26:43;;;;;;;13.43;6.13;;;;;;;;;;5014359;28;20604;-69
2024/02/26 04:29:09;;;;;;;12.13;6.78;;;;;;;;;;5012878;28;20124;-70
2024/02/26 04:31:35;;;;;;;15.07;6.65;;;;;;;;;;5015436;28;20156;-69
2024/02/26 04:34:01;;;;;;;13.95;6.68;;;;;;;;;;5014413;28;20041;-69
2024/02/26 04:36:27;;;;;;;9.82;6.20;;;;;;;;;;5019309;28;20350;-69
2024/02/26 04:38:55;;;;;;;10.38;6.15;;;;;;;;;;5016850;28;20042;-69
2024/02/26 04:41:22;;;;;;;14.35;6.47;;;;;;;;;;5016144;28;20053;-69
2024/02/26 04:43:48;;;;;;;11.18;5.97;;;;;;;;;;5014928;28;20049;-69
2024/02/26 04:46:14;;;;;;;10.40;5.50;;;;;;;;;;5013460;28;20081;-69
2024/02/26 04:48:41;;;;;;;10.95;6.80;;;;;;;;;;5018734;28;20595;-69
2024/02/26 04:51:08;;;;;;;13.23;6.13;;;;;;;;;;5018607;28;20049;-69
2024/02/26 04:53:34;;;;;;;12.95;5.80;;;;;;;;;;5015624;28;20080;-69
2024/02/26 04:56:00;;;;;;;15.07;6.28;;;;;;;;;;5015033;28;20046;-69
2024/02/26 04:58:26;;;;;;;9.65;5.97;;;;;;;;;;5014016;28;20042;-69
2024/02/26 05:00:52;;;;;;;7.85;4.28;;;;;;;;;;5014362;28;20129;-69
2024/02/26 05:03:19;;;;;;;9.80;4.97;;;;;;;;;;5012986;28;20053;-69
2024/02/26 05:05:45;;;;;;;10.88;4.30;;;;;;;;;;5013959;28;21905;-69
2024/02/26 05:08:11;;;;;;;9.27;4.60;;;;;;;;;;4998451;28;20057;-69
2024/02/26 05:10:40;;;;;;;8.82;4.20;;;;;;;;;;5016082;28;20056;-70
2024/02/26 05:13:07;;;;;;;7.65;3.60;;;;;;;;;;5016754;28;20098;-70
2024/02/26 05:15:33;;;;;;;9.43;3.97;;;;;;;;;;5013282;28;21312;-70
2024/02/26 05:17:59;;;;;;;8.07;3.38;;;;;;;;;;5016670;28;20509;-69
2024/02/26 05:20:26;;;;;;;8.98;3.63;;;;;;;;;;5016957;28;20052;-70
2024/02/26 05:22:52;;;;;;;7.38;3.47;;;;;;;;;;5012001;28;20148;-70
2024/02/26 05:25:18;;;;;;;7.22;3.97;;;;;;;;;;5014495;28;20045;-70
2024/02/26 05:27:45;;;;;;;7.97;4.20;;;;;;;;;;5011673;28;20057;-69
2024/02/26 05:30:11;;;;;;;10.45;3.45;;;;;;;;;;5019603;28;20119;-69
2024/02/26 05:32:38;;;;;;;6.40;3.50;;;;;;;;;;5019415;28;20049;-69
2024/02/26 05:35:04;;;;;;;8.18;3.60;;;;;;;;;;5018716;28;20136;-69
2024/02/26 05:37:30;;;;;;;6.45;3.40;;;;;;;;;;5020842;28;20128;-69
2024/02/26 05:39:56;;;;;;;6.43;3.40;;;;;;;;;;5018718;28;20053;-69
2024/02/26 05:42:23;;;;;;;6.30;3.03;;;;;;;;;;5024653;28;20051;-69
2024/02/26 05:44:49;;;;;;;5.18;2.78;;;;;;;;;;5018537;28;20084;-69
2024/02/26 05:47:16;;;;;;;9.85;3.15;;;;;;;;;;5019530;28;20208;-69
2024/02/26 05:49:42;;;;;;;5.03;2.63;;;;;;;;;;5020558;28;20129;-69
2024/02/26 05:52:08;;;;;;;6.05;2.80;;;;;;;;;;5018757;28;20044;-69
2024/02/26 05:54:35;;;;;;;5.53;2.75;;;;;;;;;;5023098;28;20556;-69
2024/02/26 05:57:01;;;;;;;7.43;3.03;;;;;;;;;;5019686;28;20145;-70
2024/02/26 05:59:28;;;;;;;4.40;2.33;;;;;;;;;;5018490;28;20512;-70
2024/02/26 06:01:54;;;;;;;6.03;2.85;;;;;;;;;;5027093;28;20037;-70
2024/02/26 06:04:20;;;;;;;5.40;2.38;;;;;;;;;;5039949;28;20052;-70
2024/02/26 06:06:46;;;;;;;4.90;2.15;;;;;;;;;;5025212;28;20068;-70
2024/02/26 06:09:13;;;;;;;5.50;2.35;;;;;;;;;;5015823;28;20049;-70
2024/02/26 06:11:39;;;;;;;6.63;2.60;;;;;;;;;;5016846;28;20052;-70
2024/02/26 06:14:05;;;;;;;8.00;2.55;;;;;;;;;;5020637;28;20057;-70
2024/02/26 06:16:31;;;;;;;7.43;2.40;;;;;;;;;;5001841;28;20044;-70
2024/02/26 06:19:00;;;;;;;4.25;2.33;;;;;;;;;;5016432;28;20095;-70
2024/02/26 06:21:26;;;;;;;5.53;2.25;;;;;;;;;;5017475;28;20271;-70
2024/02/26 06:23:52;;;;;;;3.63;2.03;;;;;;;;;;5024828;28;20045;-70
2024/02/26 06:26:18;;;;;;;5.47;2.00;;;;;;;;;;5024420;28;20049;-70
2024/02/26 06:28:44;;;;;;;5.88;2.85;;;;;;;;;;5020436;28;20521;-70
2024/02/26 06:31:12;;;;;;;5.93;2.05;;;;;;;;;;5022461;28;20140;-68
2024/02/26 06:33:39;;;;;;;6.13;1.88;;;;;;;;;;5019957;28;20140;-70
2024/02/26 06:36:06;;;;;;;5.20;1.75;;;;;;;;;;5019465;28;20060;-70
2024/02/26 06:38:32;;;;;;;8.10;1.85;;;;;;;;;;5015780;28;20091;-70
2024/02/26 06:40:58;;;;;;;7.68;1.65;;;;;;;;;;5018884;28;20045;-70
2024/02/26 06:43:24;;;;;;;6.68;1.70;;;;;;;;;;5018298;28;20148;-70
2024/02/26 06:45:51;;;;;;;6.22;1.50;;;;;;;;;;5015992;28;20045;-70
2024/02/26 06:48:17;;;;;;;4.82;1.83;;;;;;;;;;5018068;28;20607;-70
2024/02/26 06:50:43;;;;;;;4.93;1.65;;;;;;;;;;5023966;28;20045;-70
2024/02/26 06:53:09;;;;;;;5.30;1.70;;;;;;;;;;5019251;28;20379;-70
2024/02/26 06:55:37;;;;;;;4.03;1.60;;;;;;;;;;5021390;28;20057;-70
2024/02/26 06:58:03;;;;;;;5.55;1.58;;;;;;;;;;5018072;28;20080;-70
2024/02/26 07:00:29;;;;;;;6.97;1.70;;;;;;;;;;5010476;28;20513;-70
2024/02/26 07:02:55;;;;;;;6.55;1.60;;;;;;;;;;5018772;28;20049;-70
2024/02/26 07:05:22;;;;;;;2.97;1.50;;;;;;;;;;5018948;28;20049;-70
2024/02/26 07:07:48;;;;;;;5.93;2.05;;;;;;;;;;5017029;28;20089;-70
2024/02/26 07:10:14;;;;;;;5.60;2.08;;;;;;;;;;5019321;28;20049;-70
2024/02/26 07:12:40;;;;;;;6.93;2.10;;;;;;;;;;5015619;28;20053;-70
2024/02/26 07:15:07;;;;;;;3.67;1.75;;;;;;;;;;5020827;28;20125;-70
2024/02/26 07:17:34;;;;;;;3.70;1.75;;;;;;;;;;5019084;28;20064;-70
2024/02/26 07:20:00;;;;;;;6.38;2.10;;;;;;;;;;5017524;28;20399;-70
2024/02/26 07:22:26;;;;;;;6.55;1.80;;;;;;;;;;5015437;28;20069;-70
2024/02/26 07:24:53;;;;;;;8.43;1.70;;;;;;;;;;5017614;28;20092;-70
2024/02/26 07:27:21;;;;;;;4.70;1.90;;;;;;;;;;5019385;28;20054;-71
2024/02/26 07:29:47;;;;;;;5.55;1.90;;;;;;;;;;5018904;28;20062;-70
2024/02/26 07:32:13;;;;;;;6.40;2.40;;;;;;;;;;5001485;28;20524;-70
2024/02/26 07:34:41;;;;;;;9.80;3.72;;;;;;;;;;5001633;28;20062;-71
2024/02/26 07:37:08;;;;;;;4.03;1.92;;;;;;;;;;4998399;28;20076;-71
2024/02/26 07:39:34;;;;;;;5.88;2.40;;;;;;;;;;4998250;28;20120;-71
2024/02/26 07:42:01;;;;;;;4.28;2.03;;;;;;;;;;5020291;28;20091;-74
2024/02/26 07:44:27;;;;;;;9.32;2.78;;;;;;;;;;5002085;28;20133;-69
2024/02/26 07:46:53;;;;;;;8.90;2.28;;;;;;;;;;4984976;28;20405;-68
2024/02/26 07:49:20;;;;;;;9.77;3.33;;;;;;;;;;5005555;28;20061;-68
2024/02/26 07:51:46;;;;;;;7.88;2.33;;;;;;;;;;5002855;28;20096;-69
2024/02/26 07:54:12;;;;;;;8.10;2.10;;;;;;;;;;4998730;28;20041;-70
2024/02/26 07:56:38;;;;;;;8.68;2.38;;;;;;;;;;4998393;28;20049;-70
2024/02/26 07:59:04;;;;;;;6.78;2.15;;;;;;;;;;5003930;28;20148;-69
2024/02/26 08:01:31;;;;;;;5.57;1.98;;;;;;;;;;5003031;28;20111;-69
2024/02/26 08:03:58;;;;;;;5.25;2.50;;;;;;;;;;4976971;28;20382;-69
2024/02/26 08:06:25;;;;;;;5.85;3.03;;;;;;;;;;5001261;28;20047;-69
2024/02/26 08:08:51;;;;;;;6.15;2.42;;;;;;;;;;5025189;28;20061;-70
2024/02/26 08:11:17;;;;;;;8.60;2.88;;;;;;;;;;4998730;28;20077;-69
2024/02/26 08:13:43;;;;;;;6.53;2.72;;;;;;;;;;5000127;28;20092;-69
2024/02/26 08:16:10;;;;;;;7.15;3.47;;;;;;;;;;4999914;28;20038;-69
2024/02/26 08:18:36;;;;;;;7.13;2.50;;;;;;;;;;4996891;28;20053;-69
2024/02/26 08:21:02;;;;;;;6.40;2.55;;;;;;;;;;5001115;28;20060;-68
2024/02/26 08:23:29;;;;;;;15.30;2.88;;;;;;;;;;5005429;28;20056;-69
2024/02/26 08:25:55;;;;;;;5.10;2.65;;;;;;;;;;5024597;28;20140;-69
2024/02/26 08:28:21;;;;;;;4.80;2.60;;;;;;;;;;5019885;28;20100;-69
2024/02/26 08:30:48;;;;;;;11.88;4.65;;;;;;;;;;5017149;28;20084;-69
2024/02/26 08:33:16;;;;;;;7.45;2.85;;;;;;;;;;5024994;28;20039;-69
2024/02/26 08:35:42;;;;;;;5.10;2.05;;;;;;;;;;5019180;28;20041;-70
2024/02/26 08:38:08;;;;;;;9.80;2.67;;;;;;;;;;5016150;28;20046;-65
2024/02/26 08:40:34;;;;;;;4.20;1.80;;;;;;;;;;5024360;28;20041;-65
2024/02/26 08:43:01;;;;;;;7.05;2.08;;;;;;;;;;5023008;28;20471;-65
2024/02/26 08:45:27;;;;;;;9.63;2.17;;;;;;;;;;5014784;28;20049;-65
2024/02/26 08:47:53;;;;;;;8.50;1.80;;;;;;;;;;5021410;28;20045;-66
2024/02/26 08:50:19;;;;;;;7.18;2.75;;;;;;;;;;5023126;28;20085;-65
2024/02/26 08:52:50;;;;;;;5.78;1.83;;;;;;;;;;5023395;28;20587;-65
2024/02/26 08:55:16;;;;;;;8.93;2.15;;;;;;;;;;5028442;28;20380;-64
2024/02/26 08:57:42;;;;;;;6.13;1.73;;;;;;;;;;5022267;28;20096;-70
2024/02/26 09:00:09;;;;;;;5.55;2.20;;;;;;;;;;5021624;28;20321;-64
2024/02/26 09:02:35;;;;;;;6.93;1.70;;;;;;;;;;5025258;28;20086;-65
2024/02/26 09:05:01;;;;;;;5.97;2.05;;;;;;;;;;5028197;28;20167;-65
2024/02/26 09:07:27;;;;;;;9.43;3.10;;;;;;;;;;5027370;28;20524;-65
2024/02/26 09:09:53;;;;;;;7.60;2.30;;;;;;;;;;5027198;28;20045;-64
2024/02/26 09:12:19;;;;;;;9.75;2.60;;;;;;;;;;5025646;28;20072;-65
2024/02/26 09:14:46;;;;;;;7.47;2.05;;;;;;;;;;5027932;28;20049;-65
2024/02/26 09:17:12;;;;;;;7.93;2.10;;;;;;;;;;5026608;28;20053;-65
2024/02/26 09:19:38;;;;;;;3.85;1.67;;;;;;;;;;5026677;28;20045;-73
2024/02/26 09:22:04;;;;;;;8.40;2.28;;;;;;;;;;5024684;28;20121;-65
2024/02/26 09:24:30;;;;;;;6.93;2.75;;;;;;;;;;5021870;28;20041;-65
2024/02/26 09:26:57;;;;;;;5.78;2.22;;;;;;;;;;5020143;28;20045;-65
2024/02/26 09:29:23;;;;;;;9.50;2.50;;;;;;;;;;5024376;28;20072;-65
2024/02/26 09:31:49;;;;;;;10.30;2.63;;;;;;;;;;5027881;28;20600;-66
2024/02/26 09:34:15;;;;;;;6.53;1.90;;;;;;;;;;5025391;28;20784;-65
2024/02/26 09:36:41;;;;;;;10.95;2.78;;;;;;;;;;5024925;28;20092;-65
2024/02/26 09:39:11;;;;;;;7.18;2.47;;;;;;;;;;5025989;28;20077;-65
2024/02/26 09:41:38;;;;;;;4.90;1.70;;;;;;;;;;5027073;28;20053;-65
2024/02/26 09:44:05;;;;;;;15.07;2.50;;;;;;;;;;5022666;28;20053;-65
2024/02/26 09:46:32;;;;;;;7.57;2.05;;;;;;;;;;5018504;28;20045;-65
2024/02/26 09:48:58;;;;;;;8.13;1.73;;;;;;;;;;5018339;28;20158;-66
2024/02/26 09:51:25;;;;;;;6.00;1.70;;;;;;;;;;5017810;28;20050;-66
2024/02/26 09:53:52;;;;;;;8.63;2.17;;;;;;;;;;5021759;28;20037;-66
2024/02/26 09:56:19;;;;;;;6.10;2.42;;;;;;;;;;5024172;28;20140;-66
2024/02/26 09:58:48;;;;;;;3.97;1.63;;;;;;;;;;5024784;28;20137;-65
2024/02/26 10:01:18;;;;;;;5.88;1.73;;;;;;;;;;5024006;28;20546;-65
2024/02/26 10:03:45;;;;;;;6.40;1.80;;;;;;;;;;5022630;28;20046;-65
2024/02/26 10:06:11;;;;;;;6.63;1.77;;;;;;;;;;5025051;28;20076;-64
2024/02/26 10:08:39;;;;;;;18.10;3.30;;;;;;;;;;5025690;28;20049;-65
2024/02/26 10:11:06;;;;;;;5.78;1.80;;;;;;;;;;5027646;28;20054;-65
2024/02/26 10:13:32;;;;;;;14.40;2.25;;;;;;;;;;5026606;28;20179;-65
2024/02/26 10:15:58;;;;;;;8.07;1.52;;;;;;;;;;5024027;28;20095;-64
2024/02/26 10:18:24;;;;;;;3.97;1.85;;;;;;;;;;5023880;28;20046;-64
2024/02/26 10:21:05;;;;;;;6.35;1.70;;;;;;;;;;5027078;28;20136;-64
2024/02/26 10:23:31;;;;;;;4.28;1.77;;;;;;;;;;5026882;28;20139;-66
2024/02/26 10:25:58;;;;;;;3.78;1.83;;;;;;;;;;5023856;28;20041;-66
2024/02/26 10:28:24;;;;;;;9.68;1.60;;;;;;;;;;5026085;28;20042;-66
2024/02/26 10:30:52;;;;;;;9.30;1.83;;;;;;;;;;5026428;28;20045;-66
2024/02/26 10:33:18;;;;;;;7.20;2.45;;;;;;;;;;5025601;28;20038;-66
2024/02/26 10:35:46;;;;;;;5.05;1.73;;;;;;;;;;5024681;28;20251;-66
2024/02/26 10:38:13;;;;;;;5.38;1.80;;;;;;;;;;5024522;28;20038;-66
2024/02/26 10:40:39;;;;;;;4.05;1.50;;;;;;;;;;5026029;28;20048;-66
2024/02/26 10:43:05;;;;;;;4.85;1.88;;;;;;;;;;5027046;28;20176;-66
2024/02/26 10:45:32;;;;;;;6.57;2.17;;;;;;;;;;5026906;28;20037;-67
2024/02/26 10:47:58;;;;;;;7.15;2.15;;;;;;;;;;5030438;28;20052;-66
2024/02/26 10:50:25;;;;;;;5.03;2.00;;;;;;;;;;5026517;28;20552;-66
2024/02/26 10:52:51;;;;;;;5.07;2.42;;;;;;;;;;5023406;28;20128;-66
2024/02/26 10:55:18;;;;;;;5.57;2.22;;;;;;;;;;5025160;28;20404;-66
2024/02/26 10:57:45;;;;;;;4.45;2.22;;;;;;;;;;5026452;28;20115;-66
2024/02/26 11:00:14;;;;;;;5.70;2.38;;;;;;;;;;5024386;28;20065;-66
2024/02/26 11:02:40;;;;;;;5.63;1.88;;;;;;;;;;5024635;28;20485;-66
2024/02/26 11:05:07;;;;;;;7.97;2.70;;;;;;;;;;5026076;28;20120;-66
2024/02/26 11:07:36;;;;;;;10.73;3.22;;;;;;;;;;5026770;28;20061;-67
2024/02/26 11:10:03;;;;;;;6.50;2.72;;;;;;;;;;5026336;28;20057;-67
2024/02/26 11:12:30;;;;;;;5.97;2.78;;;;;;;;;;5022548;28;20049;-76
2024/02/26 11:14:58;;;;;;;5.45;2.70;;;;;;;;;;5024865;28;20067;-66
2024/02/26 11:17:31;;;;;;;10.80;3.25;;;;;;;;;;5024414;28;20045;-66
2024/02/26 11:19:58;;;;;;;9.30;3.50;;;;;;;;;;5024110;28;20381;-66
2024/02/26 11:22:26;;;;;;;7.32;2.92;;;;;;;;;;5024609;28;20315;-66
2024/02/26 11:24:55;;;;;;;6.45;2.80;;;;;;;;;;5023379;28;20069;-66
2024/02/26 11:27:23;;;;;;;6.97;2.78;;;;;;;;;;5023966;28;20084;-66
2024/02/26 11:29:51;;;;;;;10.32;3.70;;;;;;;;;;5023092;28;20524;-66
2024/02/26 11:32:18;;;;;;;6.28;2.78;;;;;;;;;;5023800;28;20033;-63
2024/02/26 11:34:44;;;;;;;7.15;3.53;;;;;;;;;;5022185;28;20477;-66
2024/02/26 11:37:11;;;;;;;5.95;3.00;;;;;;;;;;5026058;28;20481;-66
2024/02/26 11:39:38;;;;;;;10.80;4.28;;;;;;;;;;5022877;28;20235;-66
2024/02/26 11:42:07;;;;;;;13.00;3.85;;;;;;;;;;5023893;28;20041;-65
2024/02/26 11:44:33;;;;;;;7.13;3.05;;;;;;;;;;5022860;28;20197;-65
2024/02/26 11:47:01;;;;;;;9.30;3.88;;;;;;;;;;5025512;28;20042;-66
2024/02/26 11:49:28;;;;;;;8.05;3.88;;;;;;;;;;5021292;28;20073;-66
2024/02/26 11:51:56;;;;;;;6.53;3.28;;;;;;;;;;5022088;28;20101;-66
2024/02/26 11:54:49;;;;;;;7.18;2.50;;;;;;;;;;5021470;28;20465;-66
2024/02/26 11:57:22;;;;;;;8.77;3.60;;;;;;;;;;5020240;28;20053;-66
2024/02/26 11:59:49;;;;;;;9.57;4.23;;;;;;;;;;5004571;28;20091;-65
2024/02/26 12:02:34;;;;;;;8.27;3.58;;;;;;;;;;5021944;28;20049;-65
2024/02/26 12:05:00;;;;;;;7.78;3.30;;;;;;;;;;5021686;28;20037;-66
2024/02/26 12:07:27;;;;;;;9.20;3.17;;;;;;;;;;5020778;28;20105;-66
2024/02/26 12:09:53;;;;;;;6.53;3.20;;;;;;;;;;5018145;28;20069;-66
2024/02/26 12:12:19;;;;;;;11.13;3.97;;;;;;;;;;5019919;28;20064;-65
2024/02/26 12:14:56;;;;;;;9.23;3.40;;;;;;;;;;5022341;28;20049;-66
2024/02/26 12:17:24;;;;;;;9.57;3.42;;;;;;;;;;5023667;28;20041;-66
2024/02/26 12:19:51;;;;;;;10.70;4.50;;;;;;;;;;5023530;28;20076;-66
2024/02/26 12:22:17;;;;;;;12.23;4.30;;;;;;;;;;5025091;28;20068;-66
2024/02/26 12:24:44;;;;;;;8.77;3.47;;;;;;;;;;5023114;28;20489;-66
2024/02/26 12:27:10;;;;;;;8.25;3.80;;;;;;;;;;5027337;28;20398;-66
2024/02/26 12:29:36;;;;;;;9.40;3.85;;;;;;;;;;5023654;28;20053;-81
2024/02/26 12:32:05;;;;;;;12.57;4.10;;;;;;;;;;5028113;28;20405;-65
2024/02/26 12:34:32;;;;;;;6.35;3.50;;;;;;;;;;5023377;28;20124;-66
2024/02/26 12:36:58;;;;;;;11.30;3.35;;;;;;;;;;5027309;28;20049;-66
2024/02/26 12:39:24;;;;;;;14.95;5.85;;;;;;;;;;5023867;28;20312;-66
2024/02/26 12:41:51;;;;;;;6.65;3.38;;;;;;;;;;5023513;28;20050;-66
2024/02/26 12:44:17;;;;;;;9.77;3.85;;;;;;;;;;5020683;28;20041;-66
2024/02/26 12:46:43;;;;;;;14.88;5.50;;;;;;;;;;5020810;28;20041;-66
2024/02/26 12:49:15;;;;;;;8.07;3.80;;;;;;;;;;5022581;28;20140;-65
2024/02/26 12:51:41;;;;;;;11.80;3.20;;;;;;;;;;5028605;28;20052;-66
2024/02/26 12:54:08;;;;;;;8.80;3.20;;;;;;;;;;5026913;28;20045;-70
2024/02/26 12:56:34;;;;;;;9.52;3.15;;;;;;;;;;5025082;28;20061;-74
2024/02/26 12:59:01;;;;;;;8.88;2.75;;;;;;;;;;5004007;28;20131;-65
2024/02/26 13:01:27;;;;;;;15.52;2.83;;;;;;;;;;5013672;28;20049;-65
2024/02/26 13:03:53;;;;;;;8.95;2.88;;;;;;;;;;5020900;28;20064;-68
2024/02/26 13:06:21;;;;;;;14.85;3.40;;;;;;;;;;5021971;28;20128;-70
2024/02/26 13:08:48;;;;;;;7.15;3.13;;;;;;;;;;5018899;28;20052;-66
2024/02/26 13:11:14;;;;;;;6.35;2.50;;;;;;;;;;5022445;28;20500;-66
2024/02/26 13:13:40;;;;;;;10.05;3.85;;;;;;;;;;5021069;28;20116;-65
2024/02/26 13:16:08;;;;;;;9.98;2.72;;;;;;;;;;5028356;28;20041;-64
2024/02/26 13:18:36;;;;;;;6.60;3.50;;;;;;;;;;5029247;28;20363;-65
2024/02/26 13:21:09;;;;;;;5.93;2.60;;;;;;;;;;5027643;28;20451;-65
2024/02/26 13:23:35;;;;;;;7.40;2.55;;;;;;;;;;5023143;28;20072;-64
2024/02/26 13:26:02;;;;;;;10.57;3.47;;;;;;;;;;5040386;28;20132;-66
2024/02/26 13:28:28;;;;;;;8.73;3.00;;;;;;;;;;5016919;28;20049;-67
2024/02/26 13:30:57;;;;;;;11.35;3.28;;;;;;;;;;5023319;28;20128;-63
2024/02/26 13:33:23;;;;;;;8.85;2.95;;;;;;;;;;5024161;28;20043;-63
2024/02/26 13:35:50;;;;;;;10.25;3.13;;;;;;;;;;5023967;28;20387;-63
2024/02/26 13:38:16;;;;;;;10.10;3.33;;;;;;;;;;5023596;28;20046;-64
2024/02/26 13:40:42;;;;;;;12.48;4.05;;;;;;;;;;5021330;28;20040;-65
2024/02/26 13:43:08;;;;;;;8.25;2.95;;;;;;;;;;5019733;28;20106;-66
2024/02/26 13:45:35;;;;;;;8.63;2.83;;;;;;;;;;5021997;28;20154;-66
2024/02/26 13:48:04;;;;;;;7.75;2.25;;;;;;;;;;5023660;28;20037;-65
2024/02/26 13:50:30;;;;;;;7.32;2.83;;;;;;;;;;5020073;28;20054;-66
2024/02/26 13:52:57;;;;;;;8.80;3.00;;;;;;;;;;5025397;28;20434;-66
2024/02/26 13:55:26;;;;;;;6.57;2.03;;;;;;;;;;5024139;28;20179;-66
2024/02/26 13:57:53;;;;;;;4.82;1.88;;;;;;;;;;5025815;28;20037;-66
2024/02/26 14:00:20;;;;;;;5.43;2.05;;;;;;;;;;5024643;28;20507;-66
2024/02/26 14:02:46;;;;;;;5.50;2.50;;;;;;;;;;5025089;28;20117;-66
2024/02/26 14:05:13;;;;;;;6.72;2.75;;;;;;;;;;5019722;28;20080;-66
2024/02/26 14:07:39;;;;;;;6.55;2.50;;;;;;;;;;5024892;28;20659;-66
2024/02/26 14:10:06;;;;;;;8.15;2.92;;;;;;;;;;5023752;28;20060;-66
2024/02/26 14:12:32;;;;;;;6.85;2.30;;;;;;;;;;5021848;28;20067;-65
2024/02/26 14:15:00;;;;;;;8.10;2.58;;;;;;;;;;5024354;28;20102;-66
2024/02/26 14:17:27;;;;;;;7.60;2.60;;;;;;;;;;5024793;28;20088;-66
2024/02/26 14:19:54;;;;;;;5.63;2.38;;;;;;;;;;5025657;28;20460;-67
2024/02/26 14:22:20;;;;;;;4.63;2.05;;;;;;;;;;5018151;28;20111;-66
2024/02/26 14:24:46;;;;;;;5.50;2.63;;;;;;;;;;5020002;28;20071;-66
2024/02/26 14:27:15;;;;;;;6.45;2.47;;;;;;;;;;5021056;28;20045;-66
2024/02/26 14:29:43;;;;;;;7.82;2.30;;;;;;;;;;5022139;28;20462;-66
2024/02/26 14:32:09;;;;;;;4.88;2.03;;;;;;;;;;5038827;28;20041;-66
2024/02/26 14:34:35;;;;;;;8.32;2.40;;;;;;;;;;5021991;28;20053;-66